createdAt,value
2022-10-18T00:01:08.026Z,10.65
2022-10-18T00:03:35.893Z,8.73
2022-10-18T00:06:03.594Z,9.68
2022-10-18T00:08:31.082Z,10.35
2022-10-18T00:10:58.460Z,9.55
2022-10-18T00:13:25.865Z,12.32
2022-10-18T00:15:54.101Z,10.52
2022-10-18T00:18:21.502Z,9.43
2022-10-18T00:21:07.011Z,12.50
2022-10-18T00:23:34.765Z,15.82
2022-10-18T00:26:02.081Z,13.82
2022-10-18T00:28:29.438Z,15.93
2022-10-18T00:30:56.888Z,18.83
2022-10-18T00:33:24.338Z,13.63
2022-10-18T00:35:51.698Z,16.50
2022-10-18T00:38:19.004Z,13.75
2022-10-18T00:40:46.305Z,13.10
2022-10-18T00:43:16.606Z,14.75
2022-10-18T00:45:44.004Z,13.10
2022-10-18T00:48:12.450Z,15.13
2022-10-18T00:50:40.624Z,14.77
2022-10-18T00:53:10.823Z,14.75
2022-10-18T00:55:38.213Z,15.38
2022-10-18T00:58:06.392Z,14.02
2022-10-18T01:00:34.938Z,17.25
2022-10-18T01:03:02.278Z,15.23
2022-10-18T01:05:29.681Z,18.92
2022-10-18T01:08:04.648Z,15.18
2022-10-18T01:10:52.209Z,17.73
2022-10-18T01:13:23.437Z,16.50
2022-10-18T01:16:02.146Z,17.17
2022-10-18T01:18:40.968Z,18.50
2022-10-18T01:21:11.033Z,19.15
2022-10-18T01:23:53.355Z,17.85
2022-10-18T01:26:39.373Z,20.70
2022-10-18T01:29:32.800Z,20.08
2022-10-18T01:32:12.801Z,21.15
2022-10-18T01:34:41.078Z,20.27
2022-10-18T01:37:10.278Z,23.48
2022-10-18T01:39:39.185Z,23.95
2022-10-18T01:42:08.384Z,27.52
2022-10-18T01:44:35.887Z,21.70
2022-10-18T01:47:04.387Z,21.42
2022-10-18T01:49:33.391Z,26.83
2022-10-18T01:52:00.804Z,26.50
2022-10-18T01:54:34.295Z,28.27
2022-10-18T01:57:04.701Z,28.70
2022-10-18T01:59:32.088Z,31.65
2022-10-18T02:02:05.101Z,35.75
2022-10-18T02:04:35.306Z,35.35
2022-10-18T02:07:15.632Z,38.60
2022-10-18T02:09:46.292Z,39.50
2022-10-18T02:12:15.329Z,39.03
2022-10-18T02:14:44.019Z,35.00
2022-10-18T02:17:13.186Z,39.15
2022-10-18T02:19:43.402Z,35.78
2022-10-18T02:22:12.231Z,38.90
2022-10-18T02:24:42.800Z,41.35
2022-10-18T02:27:10.420Z,35.92
2022-10-18T02:29:37.891Z,34.88
2022-10-18T02:32:28.335Z,38.00
2022-10-18T02:35:05.598Z,41.58
2022-10-18T02:37:38.873Z,40.67
2022-10-18T02:40:07.224Z,35.78
2022-10-18T02:42:35.753Z,38.58
2022-10-18T02:45:03.145Z,38.38
2022-10-18T02:47:30.566Z,39.70
2022-10-18T02:49:58.201Z,33.38
2022-10-18T02:52:25.431Z,34.08
2022-10-18T02:54:52.708Z,38.35
2022-10-18T02:57:19.975Z,37.53
2022-10-18T02:59:47.374Z,37.10
2022-10-18T03:02:14.720Z,42.42
2022-10-18T03:04:42.082Z,37.50
2022-10-18T03:07:09.374Z,40.72
2022-10-18T03:09:38.267Z,38.65
2022-10-18T03:12:05.914Z,46.03
2022-10-18T03:14:33.220Z,42.38
2022-10-18T03:17:00.477Z,38.78
2022-10-18T03:19:27.847Z,43.78
2022-10-18T03:21:55.195Z,48.95
2022-10-18T03:24:22.511Z,44.20
2022-10-18T03:26:49.867Z,49.88
2022-10-18T03:29:17.279Z,43.28
2022-10-18T03:31:44.583Z,46.25
2022-10-18T03:34:11.826Z,50.72
2022-10-18T03:36:41.213Z,50.78
2022-10-18T03:39:08.471Z,45.97
2022-10-18T03:41:35.749Z,41.83
2022-10-18T03:44:03.172Z,38.53
2022-10-18T03:46:30.583Z,41.33
2022-10-18T03:48:57.942Z,46.03
2022-10-18T03:51:25.457Z,37.95
2022-10-18T03:53:52.904Z,43.28
2022-10-18T03:56:21.479Z,40.40
2022-10-18T03:58:48.731Z,40.10
2022-10-18T04:01:16.097Z,41.53
2022-10-18T04:03:43.349Z,38.53
2022-10-18T04:06:10.682Z,38.83
2022-10-18T04:08:37.988Z,35.58
2022-10-18T04:11:08.359Z,48.30
2022-10-18T04:13:36.166Z,40.08
2022-10-18T04:16:03.672Z,37.42
2022-10-18T04:18:30.965Z,43.13
2022-10-18T04:20:58.799Z,37.83
2022-10-18T04:23:26.112Z,34.92
2022-10-18T04:25:53.471Z,39.70
2022-10-18T04:28:20.777Z,37.20
2022-10-18T04:30:51.639Z,34.70
2022-10-18T04:33:19.577Z,36.97
2022-10-18T04:35:47.516Z,31.65
2022-10-18T04:38:14.957Z,29.42
2022-10-18T04:40:42.402Z,35.97
2022-10-18T04:43:09.746Z,31.48
2022-10-18T04:45:37.299Z,32.72
2022-10-18T04:48:04.777Z,26.50
2022-10-18T04:50:32.054Z,29.98
2022-10-18T04:52:59.333Z,30.83
2022-10-18T04:55:27.258Z,27.42
2022-10-18T04:57:55.219Z,27.88
2022-10-18T05:00:22.559Z,23.48
2022-10-18T05:02:49.942Z,32.17
2022-10-18T05:05:17.303Z,24.27
2022-10-18T05:07:44.569Z,21.85
2022-10-18T05:10:11.938Z,26.58
2022-10-18T05:12:39.481Z,23.02
2022-10-18T05:15:07.461Z,22.35
2022-10-18T05:17:34.900Z,25.40
2022-10-18T05:20:02.291Z,21.70
2022-10-18T05:22:29.928Z,20.65
2022-10-18T05:24:57.462Z,22.95
2022-10-18T05:27:25.008Z,20.25
2022-10-18T05:29:52.267Z,20.67
2022-10-18T05:32:19.521Z,18.70
2022-10-18T05:34:46.794Z,18.50
2022-10-18T05:37:14.026Z,18.63
2022-10-18T05:39:41.341Z,15.82
2022-10-18T05:42:08.950Z,16.92
2022-10-18T05:44:36.269Z,18.02
2022-10-18T05:47:03.546Z,15.65
2022-10-18T05:49:30.911Z,16.02
2022-10-18T05:51:58.162Z,15.75
2022-10-18T05:54:25.458Z,15.18
2022-10-18T05:56:52.759Z,17.42
2022-10-18T05:59:20.037Z,15.30
2022-10-18T06:01:47.362Z,12.52
2022-10-18T06:04:14.736Z,14.20
2022-10-18T06:06:42.055Z,12.85
2022-10-18T06:09:09.594Z,13.40
2022-10-18T06:11:37.582Z,14.90
2022-10-18T06:14:05.296Z,11.05
2022-10-18T06:16:32.963Z,16.48
2022-10-18T06:19:00.394Z,10.43
2022-10-18T06:21:28.132Z,12.95
2022-10-18T06:23:58.522Z,12.63
2022-10-18T06:26:26.278Z,12.05
2022-10-18T06:28:53.636Z,10.20
2022-10-18T06:31:21.430Z,8.85
2022-10-18T06:33:49.303Z,6.30
2022-10-18T06:36:18.220Z,7.18
2022-10-18T06:38:45.864Z,6.87
2022-10-18T06:41:13.282Z,7.93
2022-10-18T06:43:40.796Z,6.63
2022-10-18T06:46:09.230Z,6.97
2022-10-18T06:48:37.044Z,7.45
2022-10-18T06:51:05.578Z,8.88
2022-10-18T06:53:34.167Z,5.40
2022-10-18T06:56:06.114Z,6.05
2022-10-18T06:58:34.040Z,4.80
2022-10-18T07:01:06.028Z,5.63
2022-10-18T07:03:34.837Z,5.28
2022-10-18T07:06:02.992Z,4.60
2022-10-18T07:08:30.743Z,5.50
2022-10-18T07:10:58.156Z,5.10
2022-10-18T07:13:32.447Z,6.13
2022-10-18T07:16:07.517Z,3.13
2022-10-18T07:18:35.973Z,3.63
2022-10-18T07:21:07.342Z,4.50
2022-10-18T07:23:35.370Z,6.55
2022-10-18T07:26:03.415Z,4.13
2022-10-18T07:28:31.310Z,4.50
2022-10-18T07:31:02.389Z,5.30
2022-10-18T07:33:33.570Z,5.03
2022-10-18T07:36:04.744Z,4.00
2022-10-18T07:38:32.067Z,4.05
2022-10-18T07:41:00.289Z,3.22
2022-10-18T07:43:27.739Z,4.85
2022-10-18T07:45:58.967Z,4.82
2022-10-18T07:48:26.646Z,2.92
2022-10-18T07:50:53.969Z,3.38
2022-10-18T07:53:21.295Z,3.15
2022-10-18T07:55:48.633Z,3.50
2022-10-18T07:58:15.960Z,2.95
2022-10-18T08:00:43.234Z,3.97
2022-10-18T08:03:10.550Z,3.80
2022-10-18T08:05:37.968Z,3.75
2022-10-18T08:08:07.878Z,3.03
2022-10-18T08:10:36.295Z,3.03
2022-10-18T08:13:03.675Z,2.63
2022-10-18T08:15:30.977Z,3.97
2022-10-18T08:17:58.317Z,2.47
2022-10-18T08:20:30.734Z,2.83
2022-10-18T08:23:00.329Z,2.08
2022-10-18T08:25:28.185Z,3.25
2022-10-18T08:27:55.522Z,3.30
2022-10-18T08:30:23.642Z,3.63
2022-10-18T08:32:50.928Z,1.88
2022-10-18T08:35:18.487Z,4.20
2022-10-18T08:37:46.330Z,3.15
2022-10-18T08:40:14.951Z,3.92
2022-10-18T08:42:42.215Z,2.10
2022-10-18T08:45:17.803Z,4.90
2022-10-18T08:47:57.958Z,2.17
2022-10-18T08:50:27.947Z,3.83
2022-10-18T08:52:58.351Z,2.97
2022-10-18T08:55:27.883Z,5.28
2022-10-18T08:57:55.336Z,1.83
2022-10-18T09:00:24.008Z,2.78
2022-10-18T09:02:57.330Z,4.93
2022-10-18T09:05:40.131Z,4.13
2022-10-18T09:08:23.802Z,4.85
2022-10-18T09:11:14.114Z,7.70
2022-10-18T09:13:53.346Z,2.50
2022-10-18T09:16:29.045Z,2.25
2022-10-18T09:18:59.396Z,2.38
2022-10-18T09:21:38.706Z,6.93
2022-10-18T09:24:06.031Z,2.15
2022-10-18T09:26:38.928Z,3.80
2022-10-18T09:29:17.428Z,2.00
2022-10-18T09:31:44.746Z,2.90
2022-10-18T09:34:20.129Z,2.63
2022-10-18T09:36:48.010Z,2.13
2022-10-18T09:39:17.298Z,5.68
2022-10-18T09:42:03.458Z,4.22
2022-10-18T09:44:45.258Z,3.28
2022-10-18T09:47:18.435Z,2.05
2022-10-18T09:49:50.827Z,3.85
2022-10-18T09:52:21.390Z,2.97
2022-10-18T09:55:01.205Z,5.38
2022-10-18T09:57:32.231Z,4.03
2022-10-18T10:00:01.290Z,4.55
2022-10-18T10:02:28.839Z,4.23
2022-10-18T10:04:56.460Z,10.90
2022-10-18T10:07:29.936Z,3.05
2022-10-18T10:10:05.511Z,3.97
2022-10-18T10:12:34.462Z,4.22
2022-10-18T10:15:09.478Z,4.18
2022-10-18T10:17:36.810Z,4.68
2022-10-18T10:20:16.416Z,3.33
2022-10-18T10:22:46.987Z,4.32
2022-10-18T10:25:31.699Z,3.17
2022-10-18T10:28:03.819Z,4.13
2022-10-18T10:30:32.359Z,5.60
2022-10-18T10:32:59.737Z,7.55
2022-10-18T10:35:49.042Z,3.80
2022-10-18T10:38:26.782Z,9.48
2022-10-18T10:40:54.179Z,6.47
2022-10-18T10:43:40.447Z,7.25
2022-10-18T10:46:14.750Z,3.17
2022-10-18T10:48:49.310Z,5.53
2022-10-18T10:51:18.018Z,2.58
2022-10-18T10:54:04.067Z,4.38
2022-10-18T10:56:33.263Z,7.78
2022-10-18T10:59:14.661Z,6.75
2022-10-18T11:01:42.496Z,2.95
2022-10-18T11:04:26.722Z,3.15
2022-10-18T11:07:00.054Z,5.95
2022-10-18T11:09:47.584Z,5.45
2022-10-18T11:12:17.893Z,2.00
2022-10-18T11:14:47.391Z,5.20
2022-10-18T11:17:24.457Z,2.95
2022-10-18T11:20:05.443Z,5.13
2022-10-18T11:22:44.427Z,11.65
2022-10-18T11:25:14.640Z,3.78
2022-10-18T11:27:54.113Z,4.40
2022-10-18T11:30:35.389Z,3.90
2022-10-18T11:33:44.034Z,4.80
2022-10-18T11:39:01.869Z,6.35
2022-10-18T11:41:37.355Z,3.17
2022-10-18T11:44:09.594Z,3.97
2022-10-18T11:46:42.817Z,4.10
2022-10-18T11:49:10.102Z,4.07
2022-10-18T11:52:07.424Z,4.25
2022-10-18T11:54:38.288Z,5.38
2022-10-18T11:57:11.824Z,4.03
2022-10-18T11:59:45.117Z,2.38
2022-10-18T12:02:12.458Z,5.90
2022-10-18T12:04:53.135Z,3.03
2022-10-18T12:07:35.613Z,6.45
2022-10-18T12:10:03.699Z,5.75
2022-10-18T12:12:33.620Z,4.53
2022-10-18T12:15:06.342Z,10.20
2022-10-18T12:17:44.259Z,25.50
2022-10-18T12:20:20.407Z,5.30
2022-10-18T12:22:50.855Z,16.38
2022-10-18T12:25:19.138Z,3.83
2022-10-18T12:27:58.602Z,7.22
2022-10-18T12:30:25.906Z,5.03
2022-10-18T12:33:10.028Z,5.97
2022-10-18T12:36:04.248Z,9.82
2022-10-18T12:38:36.585Z,2.08
2022-10-18T12:41:04.399Z,1.98
2022-10-18T12:43:36.623Z,3.60
2022-10-18T12:46:13.316Z,4.70
2022-10-18T12:48:48.026Z,4.35
2022-10-18T12:51:17.060Z,4.75
2022-10-18T12:53:55.153Z,3.25
2022-10-18T12:56:28.222Z,3.60
2022-10-18T12:59:14.200Z,3.53
2022-10-18T13:01:53.931Z,7.55
2022-10-18T13:07:00.614Z,7.25
2022-10-18T13:09:35.132Z,3.92
2022-10-18T13:12:11.447Z,11.43
2022-10-18T13:14:44.174Z,8.55
2022-10-18T13:17:27.017Z,6.57
2022-10-18T13:20:07.656Z,5.80
2022-10-18T13:23:04.963Z,5.55
2022-10-18T13:25:32.725Z,10.98
2022-10-18T13:28:06.183Z,6.07
2022-10-18T13:30:45.322Z,3.78
2022-10-18T13:33:25.141Z,6.63
2022-10-18T13:38:34.320Z,12.27
2022-10-18T13:41:06.045Z,5.03
2022-10-18T13:43:52.220Z,8.02
2022-10-18T13:46:20.413Z,6.32
2022-10-18T13:48:54.538Z,4.65
2022-10-18T13:51:24.822Z,18.05
2022-10-18T13:54:03.459Z,4.07
2022-10-18T13:56:44.604Z,7.35
2022-10-18T13:59:30.573Z,5.82
2022-10-18T14:02:22.368Z,4.97
2022-10-18T14:05:23.863Z,9.63
2022-10-18T14:07:53.246Z,4.95
2022-10-18T14:10:43.265Z,7.70
2022-10-18T14:13:22.177Z,5.88
2022-10-18T14:15:52.454Z,7.88
2022-10-18T14:18:23.179Z,7.45
2022-10-18T14:21:12.316Z,6.75
2022-10-18T14:23:47.211Z,10.65
2022-10-18T14:26:15.810Z,7.45
2022-10-18T14:29:00.230Z,7.82
2022-10-18T14:31:27.943Z,4.97
2022-10-18T14:33:58.612Z,8.35
2022-10-18T14:36:38.952Z,5.55
2022-10-18T14:39:06.901Z,5.05
2022-10-18T14:41:34.144Z,8.30
2022-10-18T14:44:31.493Z,6.90
2022-10-18T14:47:10.627Z,6.55
2022-10-18T14:49:44.009Z,8.85
2022-10-18T14:52:15.276Z,6.70
2022-10-18T14:54:42.750Z,4.38
2022-10-18T14:57:15.958Z,8.98
2022-10-18T14:59:53.274Z,7.30
2022-10-18T15:02:23.657Z,8.15
2022-10-18T15:05:01.149Z,6.18
2022-10-18T15:07:32.273Z,7.57
2022-10-18T15:10:01.570Z,5.13
2022-10-18T15:12:36.861Z,10.85
2022-10-18T15:15:27.927Z,6.63
2022-10-18T15:17:55.813Z,6.72
2022-10-18T15:20:26.120Z,5.07
2022-10-18T15:22:54.890Z,7.85
2022-10-18T15:25:31.549Z,6.57
2022-10-18T15:28:01.079Z,8.57
2022-10-18T15:30:38.546Z,3.97
2022-10-18T15:33:10.270Z,9.40
2022-10-18T15:35:38.615Z,5.65
2022-10-18T15:38:18.061Z,4.72
2022-10-18T15:40:45.966Z,6.25
2022-10-18T15:43:25.062Z,7.35
2022-10-18T15:46:03.194Z,7.27
2022-10-18T15:48:33.778Z,9.30
2022-10-18T15:51:06.275Z,7.00
2022-10-18T15:53:35.103Z,10.10
2022-10-18T15:56:05.149Z,8.48
2022-10-18T15:58:42.295Z,12.13
2022-10-18T16:01:20.908Z,7.32
2022-10-18T16:03:48.427Z,19.33
2022-10-18T16:06:18.212Z,11.63
2022-10-18T16:08:50.128Z,4.05
2022-10-18T16:11:19.099Z,8.13
2022-10-18T16:13:46.394Z,6.43
2022-10-18T16:16:15.502Z,9.10
2022-10-18T16:18:42.759Z,8.73
2022-10-18T16:21:28.519Z,5.25
2022-10-18T16:23:56.033Z,8.20
2022-10-18T16:26:23.525Z,7.43
2022-10-18T16:28:51.635Z,10.35
2022-10-18T16:31:23.857Z,6.40
2022-10-18T16:33:51.783Z,6.20
2022-10-18T16:36:21.752Z,3.92
2022-10-18T16:41:16.863Z,6.45
2022-10-18T16:43:44.840Z,5.25
2022-10-18T16:46:20.051Z,5.50
2022-10-18T16:48:47.372Z,6.03
2022-10-18T16:51:14.680Z,13.15
2022-10-18T16:53:42.036Z,6.97
2022-10-18T16:56:17.419Z,7.47
2022-10-18T16:58:44.751Z,14.55
2022-10-18T17:01:13.223Z,5.07
2022-10-18T17:03:40.561Z,5.60
2022-10-18T17:06:12.166Z,5.70
2022-10-18T17:08:39.451Z,6.13
2022-10-18T17:11:07.595Z,7.57
2022-10-18T17:13:34.833Z,39.15
2022-10-18T17:16:03.831Z,6.85
2022-10-18T17:18:31.481Z,6.57
2022-10-18T17:21:03.051Z,7.15
2022-10-18T17:23:32.301Z,9.75
2022-10-18T17:26:08.511Z,9.02
2022-10-18T17:28:53.035Z,11.38
2022-10-18T17:31:24.335Z,8.15
2022-10-18T17:33:56.281Z,5.82
2022-10-18T17:36:23.564Z,8.85
2022-10-18T17:38:51.709Z,4.80
2022-10-18T17:41:19.359Z,5.80
2022-10-18T17:43:48.247Z,8.23
2022-10-18T17:46:15.947Z,10.37
2022-10-18T17:48:43.299Z,9.20
2022-10-18T17:51:13.316Z,5.07
2022-10-18T17:53:40.719Z,6.85
2022-10-18T17:56:10.164Z,8.55
2022-10-18T17:58:37.553Z,11.20
2022-10-18T18:01:15.016Z,7.15
2022-10-18T18:03:42.811Z,10.05
2022-10-18T18:06:17.151Z,8.55
2022-10-18T18:08:44.549Z,10.50
2022-10-18T18:11:11.814Z,5.00
2022-10-18T18:13:39.157Z,9.88
2022-10-18T18:16:13.477Z,7.45
2022-10-18T18:18:40.814Z,4.22
2022-10-18T18:21:08.190Z,4.72
2022-10-18T18:23:35.500Z,11.38
2022-10-18T18:26:02.815Z,5.60
2022-10-18T18:28:30.121Z,4.85
2022-10-18T18:30:57.457Z,5.40
2022-10-18T18:33:24.843Z,7.03
2022-10-18T18:35:56.355Z,4.88
2022-10-18T18:38:23.852Z,10.75
2022-10-18T18:40:51.222Z,24.92
2022-10-18T18:43:23.114Z,6.32
2022-10-18T18:45:52.088Z,5.82
2022-10-18T18:48:20.013Z,9.30
2022-10-18T18:50:51.900Z,11.60
2022-10-18T18:53:19.254Z,7.78
2022-10-18T18:55:46.576Z,2.72
2022-10-18T18:58:13.845Z,9.30
2022-10-18T19:00:44.320Z,5.65
2022-10-18T19:03:12.316Z,10.23
2022-10-18T19:05:39.601Z,4.35
2022-10-18T19:08:07.149Z,9.65
2022-10-18T19:10:34.439Z,8.75
2022-10-18T19:13:01.751Z,6.38
2022-10-18T19:15:29.014Z,9.45
2022-10-18T19:17:56.912Z,10.48
2022-10-18T19:20:24.230Z,12.27
2022-10-18T19:22:51.543Z,6.95
2022-10-18T19:25:21.111Z,8.02
2022-10-18T19:27:50.746Z,11.43
2022-10-18T19:30:22.208Z,11.88
2022-10-18T19:32:52.661Z,9.65
2022-10-18T19:35:20.081Z,7.78
2022-10-18T19:37:47.321Z,8.00
2022-10-18T19:40:14.645Z,9.70
2022-10-18T19:42:41.864Z,7.13
2022-10-18T19:45:09.287Z,7.05
2022-10-18T19:47:38.491Z,6.43
2022-10-18T19:50:06.021Z,7.70
2022-10-18T19:52:33.932Z,7.75
2022-10-18T19:55:01.561Z,8.68
2022-10-18T19:57:29.045Z,10.63
2022-10-18T19:59:56.829Z,6.55
2022-10-18T20:02:25.335Z,7.57
2022-10-18T20:04:52.659Z,5.97
2022-10-18T20:07:19.959Z,5.15
2022-10-18T20:09:48.073Z,5.85
2022-10-18T20:12:15.342Z,10.43
2022-10-18T20:14:42.666Z,6.88
2022-10-18T20:17:12.955Z,12.80
2022-10-18T20:19:40.501Z,9.43
2022-10-18T20:22:07.789Z,9.00
2022-10-18T20:24:35.065Z,9.85
2022-10-18T20:27:02.385Z,10.02
2022-10-18T20:29:30.275Z,6.47
2022-10-18T20:31:59.238Z,9.60
2022-10-18T20:34:28.473Z,10.48
2022-10-18T20:36:55.522Z,11.25
2022-10-18T20:39:22.887Z,9.13
2022-10-18T20:41:49.917Z,12.25
2022-10-18T20:44:20.313Z,9.00
2022-10-18T20:46:47.234Z,9.02
2022-10-18T20:49:16.235Z,9.05
2022-10-18T20:51:43.225Z,8.87
2022-10-18T20:54:10.969Z,5.78
2022-10-18T20:56:38.880Z,7.68
2022-10-18T20:59:09.517Z,8.27
2022-10-18T21:01:37.456Z,8.60
2022-10-18T21:04:06.990Z,6.57
2022-10-18T21:06:42.648Z,6.32
2022-10-18T21:09:13.412Z,7.10
2022-10-18T21:11:41.723Z,8.43
2022-10-18T21:14:11.926Z,6.57
2022-10-18T21:16:39.227Z,6.35
2022-10-18T21:19:20.646Z,10.25
2022-10-18T21:21:52.306Z,11.85
2022-10-18T21:24:20.319Z,11.95
2022-10-18T21:26:48.274Z,7.18
2022-10-18T21:29:20.717Z,7.20
2022-10-18T21:31:49.102Z,10.65
2022-10-18T21:34:17.783Z,9.65
2022-10-18T21:36:47.118Z,7.70
2022-10-18T21:39:15.770Z,9.38
2022-10-18T21:41:43.680Z,9.75
2022-10-18T21:44:11.772Z,10.60
2022-10-18T21:46:39.510Z,8.43
2022-10-18T21:49:07.768Z,12.30
2022-10-18T21:51:35.545Z,9.93
2022-10-18T21:54:03.123Z,11.32
2022-10-18T21:56:34.373Z,11.20
2022-10-18T21:59:02.185Z,13.38
2022-10-18T22:01:32.491Z,10.70
2022-10-18T22:04:00.546Z,11.88
2022-10-18T22:06:30.085Z,12.55
2022-10-18T22:08:59.042Z,14.77
2022-10-18T22:11:30.877Z,8.05
2022-10-18T22:13:58.590Z,6.57
2022-10-18T22:16:26.010Z,9.15
2022-10-18T22:18:54.059Z,12.32
2022-10-18T22:21:21.634Z,7.57
2022-10-18T22:23:51.656Z,8.85
2022-10-18T22:26:18.977Z,9.32
2022-10-18T22:28:46.970Z,8.52
2022-10-18T22:31:18.970Z,11.60
2022-10-18T22:33:46.249Z,13.15
2022-10-18T22:36:13.407Z,4.90
2022-10-18T22:38:40.451Z,8.73
2022-10-18T22:41:08.631Z,10.60
2022-10-18T22:43:36.435Z,7.38
2022-10-18T22:46:08.820Z,12.13
2022-10-18T22:48:36.121Z,6.32
2022-10-18T22:51:03.900Z,7.93
2022-10-18T22:53:31.634Z,10.98
2022-10-18T22:55:58.853Z,11.20
2022-10-18T22:58:25.996Z,10.65
2022-10-18T23:01:01.358Z,8.77
2022-10-18T23:03:28.552Z,9.43
2022-10-18T23:05:55.491Z,13.18
2022-10-18T23:08:23.006Z,10.10
2022-10-18T23:10:52.981Z,14.02
2022-10-18T23:15:47.373Z,10.98
2022-10-18T23:18:14.265Z,8.10
2022-10-18T23:20:41.210Z,6.70
2022-10-18T23:23:08.049Z,12.25
2022-10-18T23:25:38.318Z,14.32
2022-10-18T23:28:06.228Z,12.43
2022-10-18T23:30:33.943Z,12.07
2022-10-18T23:33:00.930Z,13.13
2022-10-18T23:35:28.890Z,8.88
2022-10-18T23:37:55.755Z,6.10
2022-10-18T23:40:22.865Z,9.73
2022-10-18T23:42:49.756Z,7.22
2022-10-18T23:45:16.740Z,11.00
2022-10-18T23:47:43.614Z,6.80
2022-10-18T23:50:10.515Z,10.80
2022-10-18T23:52:38.853Z,12.25
2022-10-18T23:55:06.324Z,15.98
2022-10-18T23:57:33.401Z,12.80
